sensor_id;sensor_type;location;lat;lon;timestamp;pressure;altitude;pressure_sealevel;temperature;humidity
72086;BME280;64750;52.134;5.424;2024-03-08T00:00:16;102144.00;;;4.55;82.62
72086;BME280;64750;52.134;5.424;2024-03-08T00:02:45;102145.75;;;4.53;82.62
72086;BME280;64750;52.134;5.424;2024-03-08T00:05:14;102140.53;;;4.56;82.37
72086;BME280;64750;52.134;5.424;2024-03-08T00:07:41;102142.34;;;4.48;82.04
72086;BME280;64750;52.134;5.424;2024-03-08T00:10:11;102140.63;;;4.47;82.47
72086;BME280;64750;52.134;5.424;2024-03-08T00:12:42;102134.56;;;4.47;82.54
72086;BME280;64750;52.134;5.424;2024-03-08T00:15:14;102128.44;;;4.51;82.11
72086;BME280;64750;52.134;5.424;2024-03-08T00:17:44;102129.31;;;4.50;82.17
72086;BME280;64750;52.134;5.424;2024-03-08T00:20:11;102135.41;;;4.50;82.06
72086;BME280;64750;52.134;5.424;2024-03-08T00:22:38;102125.91;;;4.46;81.78
72086;BME280;64750;52.134;5.424;2024-03-08T00:25:06;102126.78;;;4.45;81.60
72086;BME280;64750;52.134;5.424;2024-03-08T00:27:36;102127.72;;;4.41;81.67
72086;BME280;64750;52.134;5.424;2024-03-08T00:30:05;102124.97;;;4.50;81.85
72086;BME280;64750;52.134;5.424;2024-03-08T00:32:31;102126.72;;;4.48;81.66
72086;BME280;64750;52.134;5.424;2024-03-08T00:34:58;102132.81;;;4.47;82.01
72086;BME280;64750;52.134;5.424;2024-03-08T00:37:25;102128.53;;;4.43;81.45
72086;BME280;64750;52.134;5.424;2024-03-08T00:39:52;102118.19;;;4.40;81.47
72086;BME280;64750;52.134;5.424;2024-03-08T00:42:19;102125.19;;;4.35;81.64
72086;BME280;64750;52.134;5.424;2024-03-08T00:44:47;102116.44;;;4.39;81.51
72086;BME280;64750;52.134;5.424;2024-03-08T00:47:14;102116.44;;;4.40;81.68
72086;BME280;64750;52.134;5.424;2024-03-08T00:49:41;102119.06;;;4.39;81.41
72086;BME280;64750;52.134;5.424;2024-03-08T00:52:08;102106.13;;;4.33;81.15
72086;BME280;64750;52.134;5.424;2024-03-08T00:54:35;102114.84;;;4.30;81.76
72086;BME280;64750;52.134;5.424;2024-03-08T00:57:04;102106.19;;;4.26;81.46
72086;BME280;64750;52.134;5.424;2024-03-08T00:59:33;102101.88;;;4.25;81.42
72086;BME280;64750;52.134;5.424;2024-03-08T01:02:00;102098.47;;;4.20;81.38
72086;BME280;64750;52.134;5.424;2024-03-08T01:04:27;102095.91;;;4.17;81.40
72086;BME280;64750;52.134;5.424;2024-03-08T01:06:56;102095.97;;;4.14;81.62
72086;BME280;64750;52.134;5.424;2024-03-08T01:09:23;102092.56;;;4.09;81.48
72086;BME280;64750;52.134;5.424;2024-03-08T01:11:49;102079.56;;;4.07;81.75
72086;BME280;64750;52.134;5.424;2024-03-08T01:14:16;102072.72;;;4.00;81.43
72086;BME280;64750;52.134;5.424;2024-03-08T01:16:43;102071.84;;;4.01;81.72
72086;BME280;64750;52.134;5.424;2024-03-08T01:19:09;102072.75;;;3.99;81.96
72086;BME280;64750;52.134;5.424;2024-03-08T01:21:36;102071.00;;;3.99;81.65
72086;BME280;64750;52.134;5.424;2024-03-08T01:24:03;102062.38;;;3.96;81.46
72086;BME280;64750;52.134;5.424;2024-03-08T01:26:29;102060.72;;;3.90;81.52
72086;BME280;64750;52.134;5.424;2024-03-08T01:28:56;102059.81;;;3.92;81.74
72086;BME280;64750;52.134;5.424;2024-03-08T01:31:22;102063.31;;;3.88;81.61
72086;BME280;64750;52.134;5.424;2024-03-08T01:33:49;102053.84;;;3.84;81.58
72086;BME280;64750;52.134;5.424;2024-03-08T01:36:16;102059.13;;;3.80;81.30
72086;BME280;64750;52.134;5.424;2024-03-08T01:38:44;102049.53;;;3.82;81.42
72086;BME280;64750;52.134;5.424;2024-03-08T01:41:11;102045.22;;;3.82;82.01
72086;BME280;64750;52.134;5.424;2024-03-08T01:43:39;102045.06;;;3.93;81.91
72086;BME280;64750;52.134;5.424;2024-03-08T01:46:05;102039.97;;;3.85;81.33
72086;BME280;64750;52.134;5.424;2024-03-08T01:48:33;102041.78;;;3.78;81.42
72086;BME280;64750;52.134;5.424;2024-03-08T01:51:00;102034.78;;;3.84;81.32
72086;BME280;64750;52.134;5.424;2024-03-08T01:53:27;102036.53;;;3.82;81.21
72086;BME280;64750;52.134;5.424;2024-03-08T01:55:57;102033.16;;;3.75;81.43
72086;BME280;64750;52.134;5.424;2024-03-08T01:58:28;102034.00;;;3.77;81.18
72086;BME280;64750;52.134;5.424;2024-03-08T02:00:56;102031.28;;;3.86;81.08
72086;BME280;64750;52.134;5.424;2024-03-08T02:03:24;102027.81;;;3.86;81.06
72086;BME280;64750;52.134;5.424;2024-03-08T02:05:51;102030.44;;;3.84;80.78
72086;BME280;64750;52.134;5.424;2024-03-08T02:08:18;102023.63;;;3.74;80.49
72086;BME280;64750;52.134;5.424;2024-03-08T02:10:45;102021.81;;;3.82;80.83
72086;BME280;64750;52.134;5.424;2024-03-08T02:13:12;102020.84;;;3.88;80.85
72086;BME280;64750;52.134;5.424;2024-03-08T02:15:58;102025.22;;;3.84;79.89
72086;BME280;64750;52.134;5.424;2024-03-08T02:18:26;102021.81;;;3.82;80.35
72086;BME280;64750;52.134;5.424;2024-03-08T02:20:56;102020.09;;;3.81;80.33
72086;BME280;64750;52.134;5.424;2024-03-08T02:23:23;102017.41;;;3.86;80.15
72086;BME280;64750;52.134;5.424;2024-03-08T02:25:51;102014.94;;;3.76;79.90
72086;BME280;64750;52.134;5.424;2024-03-08T02:28:19;102012.31;;;3.78;80.47
72086;BME280;64750;52.134;5.424;2024-03-08T02:30:47;102001.91;;;3.78;79.93
72086;BME280;64750;52.134;5.424;2024-03-08T02:33:14;102005.31;;;3.82;80.32
72086;BME280;64750;52.134;5.424;2024-03-08T02:35:45;102000.09;;;3.85;80.15
72086;BME280;64750;52.134;5.424;2024-03-08T02:38:19;101995.88;;;3.76;79.87
72086;BME280;64750;52.134;5.424;2024-03-08T02:40:46;101993.31;;;3.71;79.64
72086;BME280;64750;52.134;5.424;2024-03-08T02:43:15;101989.00;;;3.72;79.68
72086;BME280;64750;52.134;5.424;2024-03-08T02:45:42;101984.59;;;3.75;79.45
72086;BME280;64750;52.134;5.424;2024-03-08T02:48:08;101984.69;;;3.68;79.96
72086;BME280;64750;52.134;5.424;2024-03-08T02:50:35;101975.22;;;3.64;80.07
72086;BME280;64750;52.134;5.424;2024-03-08T02:53:03;101977.00;;;3.61;80.02
72086;BME280;64750;52.134;5.424;2024-03-08T02:55:30;101971.06;;;3.50;79.83
72086;BME280;64750;52.134;5.424;2024-03-08T02:57:56;101972.78;;;3.53;79.88
72086;BME280;64750;52.134;5.424;2024-03-08T03:00:23;101965.09;;;3.42;80.05
72086;BME280;64750;52.134;5.424;2024-03-08T03:02:50;101965.94;;;3.44;79.92
72086;BME280;64750;52.134;5.424;2024-03-08T03:05:20;101969.50;;;3.37;79.64
72086;BME280;64750;52.134;5.424;2024-03-08T03:07:47;101968.66;;;3.35;80.24
72086;BME280;64750;52.134;5.424;2024-03-08T03:10:16;101954.69;;;3.42;79.80
72086;BME280;64750;52.134;5.424;2024-03-08T03:12:46;101957.28;;;3.42;79.88
72086;BME280;64750;52.134;5.424;2024-03-08T03:15:14;101952.19;;;3.37;79.58
72086;BME280;64750;52.134;5.424;2024-03-08T03:17:47;101949.56;;;3.39;79.71
72086;BME280;64750;52.134;5.424;2024-03-08T03:20:14;101946.94;;;3.39;79.53
72086;BME280;64750;52.134;5.424;2024-03-08T03:22:41;101949.44;;;3.47;79.75
72086;BME280;64750;52.134;5.424;2024-03-08T03:25:08;101942.56;;;3.44;79.33
72086;BME280;64750;52.134;5.424;2024-03-08T03:27:35;101944.38;;;3.36;79.36
72086;BME280;64750;52.134;5.424;2024-03-08T03:30:04;101947.88;;;3.35;79.95
72086;BME280;64750;52.134;5.424;2024-03-08T03:32:50;101936.47;;;3.45;79.96
72086;BME280;64750;52.134;5.424;2024-03-08T03:35:21;101931.38;;;3.37;79.49
72086;BME280;64750;52.134;5.424;2024-03-08T03:37:49;101930.44;;;3.43;79.60
72086;BME280;64750;52.134;5.424;2024-03-08T03:40:28;101931.28;;;3.45;79.65
72086;BME280;64750;52.134;5.424;2024-03-08T03:42:55;101927.66;;;3.57;79.27
72086;BME280;64750;52.134;5.424;2024-03-08T03:45:23;101928.78;;;3.36;78.90
72086;BME280;64750;52.134;5.424;2024-03-08T03:47:49;101934.88;;;3.35;79.40
72086;BME280;64750;52.134;5.424;2024-03-08T03:50:17;101928.78;;;3.36;79.09
72086;BME280;64750;52.134;5.424;2024-03-08T03:52:46;101932.28;;;3.35;78.96
72086;BME280;64750;52.134;5.424;2024-03-08T03:55:13;101920.13;;;3.35;78.94
72086;BME280;64750;52.134;5.424;2024-03-08T03:57:40;101924.38;;;3.44;79.15
72086;BME280;64750;52.134;5.424;2024-03-08T04:00:07;101922.69;;;3.38;78.69
72086;BME280;64750;52.134;5.424;2024-03-08T04:02:40;101930.56;;;3.34;78.61
72086;BME280;64750;52.134;5.424;2024-03-08T04:05:08;101918.38;;;3.37;78.61
72086;BME280;64750;52.134;5.424;2024-03-08T04:07:35;101917.47;;;3.38;78.22
72086;BME280;64750;52.134;5.424;2024-03-08T04:10:02;101921.91;;;3.32;78.59
72086;BME280;64750;52.134;5.424;2024-03-08T04:12:29;101914.06;;;3.36;78.38
72086;BME280;64750;52.134;5.424;2024-03-08T04:14:56;101910.66;;;3.33;78.42
72086;BME280;64750;52.134;5.424;2024-03-08T04:17:22;101906.38;;;3.28;78.45
72086;BME280;64750;52.134;5.424;2024-03-08T04:19:51;101910.75;;;3.23;78.16
72086;BME280;64750;52.134;5.424;2024-03-08T04:22:17;101909.09;;;3.18;78.40
72086;BME280;64750;52.134;5.424;2024-03-08T04:24:44;101907.34;;;3.20;78.29
72086;BME280;64750;52.134;5.424;2024-03-08T04:27:13;101905.63;;;3.19;78.33
72086;BME280;64750;52.134;5.424;2024-03-08T04:29:40;101903.81;;;3.24;78.27
72086;BME280;64750;52.134;5.424;2024-03-08T04:32:10;101902.97;;;3.23;78.36
72086;BME280;64750;52.134;5.424;2024-03-08T04:34:37;101901.38;;;3.13;78.36
72086;BME280;64750;52.134;5.424;2024-03-08T04:37:03;101898.72;;;3.16;78.04
72086;BME280;64750;52.134;5.424;2024-03-08T04:39:32;101894.38;;;3.15;78.40
72086;BME280;64750;52.134;5.424;2024-03-08T04:42:02;101898.81;;;3.08;78.09
72086;BME280;64750;52.134;5.424;2024-03-08T04:44:33;101894.63;;;2.93;78.21
72086;BME280;64750;52.134;5.424;2024-03-08T04:47:00;101897.25;;;2.92;78.42
72086;BME280;64750;52.134;5.424;2024-03-08T04:49:27;101891.94;;;3.01;78.54
72086;BME280;64750;52.134;5.424;2024-03-08T04:51:54;101887.50;;;3.14;78.63
72086;BME280;64750;52.134;5.424;2024-03-08T04:54:21;101887.53;;;3.11;78.49
72086;BME280;64750;52.134;5.424;2024-03-08T04:56:47;101886.72;;;3.06;78.65
72086;BME280;64750;52.134;5.424;2024-03-08T04:59:14;101885.81;;;3.08;78.11
72086;BME280;64750;52.134;5.424;2024-03-08T05:01:40;101882.41;;;3.05;78.55
72086;BME280;64750;52.134;5.424;2024-03-08T05:04:07;101878.84;;;3.12;78.36
72086;BME280;64750;52.134;5.424;2024-03-08T05:06:35;101879.78;;;3.06;78.42
72086;BME280;64750;52.134;5.424;2024-03-08T05:09:03;101879.84;;;3.02;78.05
72086;BME280;64750;52.134;5.424;2024-03-08T05:11:40;101888.56;;;2.94;78.34
72086;BME280;64750;52.134;5.424;2024-03-08T05:14:07;101881.56;;;3.03;78.15
72086;BME280;64750;52.134;5.424;2024-03-08T05:16:33;101878.94;;;3.06;78.36
72086;BME280;64750;52.134;5.424;2024-03-08T05:19:01;101882.47;;;2.99;77.85
72086;BME280;64750;52.134;5.424;2024-03-08T05:21:27;101884.25;;;2.97;78.15
72086;BME280;64750;52.134;5.424;2024-03-08T05:23:55;101884.19;;;3.00;77.85
72086;BME280;64750;52.134;5.424;2024-03-08T05:26:21;101875.56;;;2.98;78.18
72086;BME280;64750;52.134;5.424;2024-03-08T05:28:48;101879.09;;;2.92;77.92
72086;BME280;64750;52.134;5.424;2024-03-08T05:31:21;101880.84;;;2.91;78.30
72086;BME280;64750;52.134;5.424;2024-03-08T05:33:51;101875.69;;;2.85;77.74
72086;BME280;64750;52.134;5.424;2024-03-08T05:36:17;101873.31;;;2.68;78.42
72086;BME280;64750;52.134;5.424;2024-03-08T05:38:44;101876.72;;;2.73;78.18
72086;BME280;64750;52.134;5.424;2024-03-08T05:41:11;101878.38;;;2.77;78.54
72086;BME280;64750;52.134;5.424;2024-03-08T05:43:41;101874.13;;;2.72;78.50
72086;BME280;64750;52.134;5.424;2024-03-08T05:46:08;101865.38;;;2.79;78.47
72086;BME280;64750;52.134;5.424;2024-03-08T05:48:34;101863.69;;;2.75;78.71
72086;BME280;64750;52.134;5.424;2024-03-08T05:51:01;101864.56;;;2.75;78.36
72086;BME280;64750;52.134;5.424;2024-03-08T05:53:29;101857.69;;;2.71;78.61
72086;BME280;64750;52.134;5.424;2024-03-08T05:55:58;101865.53;;;2.67;78.79
72086;BME280;64750;52.134;5.424;2024-03-08T05:58:25;101862.91;;;2.70;78.51
72086;BME280;64750;52.134;5.424;2024-03-08T06:00:51;101860.28;;;2.70;78.53
72086;BME280;64750;52.134;5.424;2024-03-08T06:03:19;101855.13;;;2.68;78.54
72086;BME280;64750;52.134;5.424;2024-03-08T06:05:48;101851.81;;;2.52;78.43
72086;BME280;64750;52.134;5.424;2024-03-08T06:08:16;101849.22;;;2.52;78.48
72086;BME280;64750;52.134;5.424;2024-03-08T06:10:42;101846.56;;;2.58;78.92
72086;BME280;64750;52.134;5.424;2024-03-08T06:13:09;101850.88;;;2.61;78.91
72086;BME280;64750;52.134;5.424;2024-03-08T06:15:38;101849.09;;;2.65;78.42
72086;BME280;64750;52.134;5.424;2024-03-08T06:18:05;101843.03;;;2.66;78.20
72086;BME280;64750;52.134;5.424;2024-03-08T06:20:32;101849.13;;;2.61;78.33
72086;BME280;64750;52.134;5.424;2024-03-08T06:22:59;101840.50;;;2.59;78.23
72086;BME280;64750;52.134;5.424;2024-03-08T06:25:26;101839.72;;;2.51;78.37
72086;BME280;64750;52.134;5.424;2024-03-08T06:27:52;101843.97;;;2.58;78.52
72086;BME280;64750;52.134;5.424;2024-03-08T06:30:19;101848.25;;;2.62;78.62
72086;BME280;64750;52.134;5.424;2024-03-08T06:32:46;101846.47;;;2.68;78.81
72086;BME280;64750;52.134;5.424;2024-03-08T06:35:13;101849.97;;;2.67;77.89
72086;BME280;64750;52.134;5.424;2024-03-08T06:37:42;101844.75;;;2.65;78.68
72086;BME280;64750;52.134;5.424;2024-03-08T06:40:12;101845.69;;;2.59;78.10
72086;BME280;64750;52.134;5.424;2024-03-08T06:42:42;101848.28;;;2.59;78.15
72086;BME280;64750;52.134;5.424;2024-03-08T06:45:09;101843.00;;;2.69;78.38
72086;BME280;64750;52.134;5.424;2024-03-08T06:47:36;101838.75;;;2.63;78.58
72086;BME280;64750;52.134;5.424;2024-03-08T06:50:04;101839.56;;;2.67;78.59
72086;BME280;64750;52.134;5.424;2024-03-08T06:52:30;101837.81;;;2.69;78.37
72086;BME280;64750;52.134;5.424;2024-03-08T06:54:57;101839.56;;;2.67;78.55
72086;BME280;64750;52.134;5.424;2024-03-08T06:57:24;101830.09;;;2.62;78.06
72086;BME280;64750;52.134;5.424;2024-03-08T06:59:50;101833.47;;;2.68;78.95
72086;BME280;64750;52.134;5.424;2024-03-08T07:02:18;101835.28;;;2.64;78.68
72086;BME280;64750;52.134;5.424;2024-03-08T07:04:45;101834.44;;;2.60;78.46
72086;BME280;64750;52.134;5.424;2024-03-08T07:07:11;101830.09;;;2.62;78.41
72086;BME280;64750;52.134;5.424;2024-03-08T07:09:38;101837.00;;;2.63;78.27
72086;BME280;64750;52.134;5.424;2024-03-08T07:12:04;101826.66;;;2.60;78.26
72086;BME280;64750;52.134;5.424;2024-03-08T07:14:31;101828.34;;;2.65;78.85
72086;BME280;64750;52.134;5.424;2024-03-08T07:16:57;101827.50;;;2.64;78.44
72086;BME280;64750;52.134;5.424;2024-03-08T07:19:24;101830.00;;;2.69;78.60
72086;BME280;64750;52.134;5.424;2024-03-08T07:21:51;101827.38;;;2.73;78.74
72086;BME280;64750;52.134;5.424;2024-03-08T07:24:17;101825.63;;;2.74;78.28
72086;BME280;64750;52.134;5.424;2024-03-08T07:26:44;101822.03;;;2.84;79.10
72086;BME280;64750;52.134;5.424;2024-03-08T07:29:10;101815.13;;;2.83;78.05
72086;BME280;64750;52.134;5.424;2024-03-08T07:31:37;101817.78;;;2.80;78.45
72086;BME280;64750;52.134;5.424;2024-03-08T07:34:03;101810.00;;;2.80;78.97
72086;BME280;64750;52.134;5.424;2024-03-08T07:36:31;101806.47;;;2.84;78.25
72086;BME280;64750;52.134;5.424;2024-03-08T07:38:58;101802.16;;;2.85;78.95
72086;BME280;64750;52.134;5.424;2024-03-08T07:41:24;101803.69;;;3.00;78.49
72086;BME280;64750;52.134;5.424;2024-03-08T07:43:51;101800.06;;;3.13;78.29
72086;BME280;64750;52.134;5.424;2024-03-08T07:46:18;101790.44;;;3.20;78.22
72086;BME280;64750;52.134;5.424;2024-03-08T07:48:45;101792.06;;;3.25;78.18
72086;BME280;64750;52.134;5.424;2024-03-08T07:51:12;101791.16;;;3.28;78.21
72086;BME280;64750;52.134;5.424;2024-03-08T07:53:42;101791.13;;;3.33;78.30
72086;BME280;64750;52.134;5.424;2024-03-08T07:56:10;101787.56;;;3.37;78.02
72086;BME280;64750;52.134;5.424;2024-03-08T07:58:39;101778.84;;;3.42;78.07
72086;BME280;64750;52.134;5.424;2024-03-08T08:01:18;101771.00;;;3.45;77.57
72086;BME280;64750;52.134;5.424;2024-03-08T08:03:45;101778.75;;;3.47;77.69
72086;BME280;64750;52.134;5.424;2024-03-08T08:06:12;101772.63;;;3.51;77.43
72086;BME280;64750;52.134;5.424;2024-03-08T08:08:42;101774.34;;;3.54;77.40
72086;BME280;64750;52.134;5.424;2024-03-08T08:11:09;101774.25;;;3.58;77.46
72086;BME280;64750;52.134;5.424;2024-03-08T08:13:36;101765.53;;;3.63;77.57
72086;BME280;64750;52.134;5.424;2024-03-08T08:16:03;101766.44;;;3.61;76.79
72086;BME280;64750;52.134;5.424;2024-03-08T08:18:32;101762.03;;;3.64;77.02
72086;BME280;64750;52.134;5.424;2024-03-08T08:20:59;101755.91;;;3.68;76.63
72086;BME280;64750;52.134;5.424;2024-03-08T08:23:28;101755.84;;;3.72;76.78
72086;BME280;64750;52.134;5.424;2024-03-08T08:25:56;101747.06;;;3.78;76.44
72086;BME280;64750;52.134;5.424;2024-03-08T08:28:22;101753.31;;;3.69;75.99
72086;BME280;64750;52.134;5.424;2024-03-08T08:30:49;101754.16;;;3.70;76.61
72086;BME280;64750;52.134;5.424;2024-03-08T08:33:16;101749.78;;;3.72;76.42
72086;BME280;64750;52.134;5.424;2024-03-08T08:35:42;101740.16;;;3.75;76.47
72086;BME280;64750;52.134;5.424;2024-03-08T08:38:09;101743.66;;;3.76;76.29
72086;BME280;64750;52.134;5.424;2024-03-08T08:40:35;101736.66;;;3.80;75.98
72086;BME280;64750;52.134;5.424;2024-03-08T08:43:03;101734.91;;;3.80;76.17
72086;BME280;64750;52.134;5.424;2024-03-08T08:45:31;101727.03;;;3.83;76.00
72086;BME280;64750;52.134;5.424;2024-03-08T08:47:57;101724.38;;;3.88;76.24
72086;BME280;64750;52.134;5.424;2024-03-08T08:50:26;101725.19;;;3.91;75.96
72086;BME280;64750;52.134;5.424;2024-03-08T08:52:55;101719.91;;;3.94;75.78
72086;BME280;64750;52.134;5.424;2024-03-08T08:55:22;101707.66;;;4.00;76.17
72086;BME280;64750;52.134;5.424;2024-03-08T08:57:53;101712.78;;;4.04;75.87
72086;BME280;64750;52.134;5.424;2024-03-08T09:00:20;101713.63;;;4.05;75.53
72086;BME280;64750;52.134;5.424;2024-03-08T09:02:47;101716.13;;;4.11;75.86
72086;BME280;64750;52.134;5.424;2024-03-08T09:05:15;101705.63;;;4.17;76.14
72086;BME280;64750;52.134;5.424;2024-03-08T09:07:43;101702.91;;;4.23;75.90
72086;BME280;64750;52.134;5.424;2024-03-08T09:10:11;101699.31;;;4.29;75.84
72086;BME280;64750;52.134;5.424;2024-03-08T09:12:43;101695.75;;;4.33;75.45
72086;BME280;64750;52.134;5.424;2024-03-08T09:15:10;101696.53;;;4.37;75.53
72086;BME280;64750;52.134;5.424;2024-03-08T09:17:40;101693.91;;;4.40;75.42
72086;BME280;64750;52.134;5.424;2024-03-08T09:20:09;101687.81;;;4.41;75.13
72086;BME280;64750;52.134;5.424;2024-03-08T09:22:36;101686.00;;;4.43;75.24
72086;BME280;64750;52.134;5.424;2024-03-08T09:25:03;101682.44;;;4.47;75.20
72086;BME280;64750;52.134;5.424;2024-03-08T09:27:32;101685.81;;;4.52;75.37
72086;BME280;64750;52.134;5.424;2024-03-08T09:30:04;101677.88;;;4.58;75.38
72086;BME280;64750;52.134;5.424;2024-03-08T09:32:30;101657.78;;;4.64;75.33
72086;BME280;64750;52.134;5.424;2024-03-08T09:34:57;101664.63;;;4.69;75.49
72086;BME280;64750;52.134;5.424;2024-03-08T09:37:24;101658.50;;;4.72;74.87
72086;BME280;64750;52.134;5.424;2024-03-08T09:39:50;101651.44;;;4.75;75.29
72086;BME280;64750;52.134;5.424;2024-03-08T09:42:17;101661.81;;;4.79;75.81
72086;BME280;64750;52.134;5.424;2024-03-08T09:44:47;101657.31;;;4.85;75.22
72086;BME280;64750;52.134;5.424;2024-03-08T09:47:14;101645.97;;;4.88;74.88
72086;BME280;64750;52.134;5.424;2024-03-08T09:49:41;101645.88;;;4.92;74.49
72086;BME280;64750;52.134;5.424;2024-03-08T09:52:09;101636.19;;;4.98;74.71
72086;BME280;64750;52.134;5.424;2024-03-08T09:54:39;101634.34;;;5.03;74.49
72086;BME280;64750;52.134;5.424;2024-03-08T09:57:06;101632.47;;;5.08;74.24
72086;BME280;64750;52.134;5.424;2024-03-08T09:59:35;101621.91;;;5.14;74.34
72086;BME280;64750;52.134;5.424;2024-03-08T10:02:04;101622.75;;;5.15;74.91
72086;BME280;64750;52.134;5.424;2024-03-08T10:04:32;101619.13;;;5.20;74.88
72086;BME280;64750;52.134;5.424;2024-03-08T10:07:00;101620.78;;;5.23;74.53
72086;BME280;64750;52.134;5.424;2024-03-08T10:09:28;101614.59;;;5.29;74.29
72086;BME280;64750;52.134;5.424;2024-03-08T10:11:57;101605.78;;;5.33;73.88
72086;BME280;64750;52.134;5.424;2024-03-08T10:14:25;101603.13;;;5.36;73.83
72086;BME280;64750;52.134;5.424;2024-03-08T10:16:53;101604.69;;;5.41;73.64
72086;BME280;64750;52.134;5.424;2024-03-08T10:19:20;101595.84;;;5.47;73.02
72086;BME280;64750;52.134;5.424;2024-03-08T10:21:52;101583.53;;;5.54;73.50
72086;BME280;64750;52.134;5.424;2024-03-08T10:24:23;101585.97;;;5.58;73.94
72086;BME280;64750;52.134;5.424;2024-03-08T10:26:55;101575.50;;;5.62;73.69
72086;BME280;64750;52.134;5.424;2024-03-08T10:29:24;101568.47;;;5.64;73.58
72086;BME280;64750;52.134;5.424;2024-03-08T10:31:51;101562.09;;;5.74;73.94
72086;BME280;64750;52.134;5.424;2024-03-08T10:34:18;101559.25;;;5.82;73.98
72086;BME280;64750;52.134;5.424;2024-03-08T10:36:45;101555.47;;;5.94;73.56
72086;BME280;64750;52.134;5.424;2024-03-08T10:39:23;101550.84;;;6.03;73.65
72086;BME280;64750;52.134;5.424;2024-03-08T10:41:57;101545.25;;;6.16;73.07
72086;BME280;64750;52.134;5.424;2024-03-08T10:47:03;101538.72;;;6.31;72.23
72086;BME280;64750;52.134;5.424;2024-03-08T10:49:38;101532.38;;;6.38;72.35
72086;BME280;64750;52.134;5.424;2024-03-08T10:52:05;101522.34;;;6.52;71.84
72086;BME280;64750;52.134;5.424;2024-03-08T10:54:36;101524.88;;;6.55;72.00
72086;BME280;64750;52.134;5.424;2024-03-08T10:57:13;101516.75;;;6.65;71.75
72086;BME280;64750;52.134;5.424;2024-03-08T10:59:41;101515.72;;;6.69;71.12
72086;BME280;64750;52.134;5.424;2024-03-08T11:02:11;101512.34;;;6.67;71.21
72086;BME280;64750;52.134;5.424;2024-03-08T11:04:46;101498.44;;;6.65;70.48
72086;BME280;64750;52.134;5.424;2024-03-08T11:07:12;101499.31;;;6.65;70.80
72086;BME280;64750;52.134;5.424;2024-03-08T11:09:44;101485.31;;;6.68;69.69
72086;BME280;64750;52.134;5.424;2024-03-08T11:12:28;101484.13;;;6.77;70.85
72086;BME280;64750;52.134;5.424;2024-03-08T11:15:03;101477.84;;;6.82;70.81
72086;BME280;64750;52.134;5.424;2024-03-08T11:20:10;101454.91;;;6.90;69.25
72086;BME280;64750;52.134;5.424;2024-03-08T11:22:52;101459.22;;;6.92;69.23
72086;BME280;64750;52.134;5.424;2024-03-08T11:25:38;101448.63;;;6.96;69.73
72086;BME280;64750;52.134;5.424;2024-03-08T11:28:19;101445.84;;;7.01;69.87
72086;BME280;64750;52.134;5.424;2024-03-08T11:33:35;101425.25;;;7.17;69.18
72086;BME280;64750;52.134;5.424;2024-03-08T11:36:10;101426.00;;;7.19;68.62
72086;BME280;64750;52.134;5.424;2024-03-08T11:38:43;101421.25;;;7.30;68.95
72086;BME280;64750;52.134;5.424;2024-03-08T11:41:10;101419.50;;;7.31;69.61
72086;BME280;64750;52.134;5.424;2024-03-08T11:43:44;101415.63;;;7.41;68.93
72086;BME280;64750;52.134;5.424;2024-03-08T11:46:11;101407.66;;;7.44;68.83
72086;BME280;64750;52.134;5.424;2024-03-08T11:48:43;101400.63;;;7.46;68.52
72086;BME280;64750;52.134;5.424;2024-03-08T11:51:11;101403.03;;;7.51;67.95
72086;BME280;64750;52.134;5.424;2024-03-08T11:53:38;101396.75;;;7.57;68.26
72086;BME280;64750;52.134;5.424;2024-03-08T11:56:10;101389.44;;;7.65;67.96
72086;BME280;64750;52.134;5.424;2024-03-08T11:58:38;101386.41;;;7.76;65.89
72086;BME280;64750;52.134;5.424;2024-03-08T12:01:06;101380.22;;;7.78;65.65
72086;BME280;64750;52.134;5.424;2024-03-08T12:03:33;101376.41;;;7.85;64.53
72086;BME280;64750;52.134;5.424;2024-03-08T12:06:00;101370.34;;;7.85;64.93
72086;BME280;64750;52.134;5.424;2024-03-08T12:08:28;101362.41;;;7.86;65.25
72086;BME280;64750;52.134;5.424;2024-03-08T12:10:54;101369.13;;;7.94;63.32
72086;BME280;64750;52.134;5.424;2024-03-08T12:13:29;101359.50;;;7.94;64.45
72086;BME280;64750;52.134;5.424;2024-03-08T12:15:57;101347.94;;;8.00;63.78
72086;BME280;64750;52.134;5.424;2024-03-08T12:18:25;101350.34;;;8.04;63.61
72086;BME280;64750;52.134;5.424;2024-03-08T12:21:04;101345.84;;;8.08;63.94
72086;BME280;64750;52.134;5.424;2024-03-08T12:23:30;101350.22;;;8.08;63.82
72086;BME280;64750;52.134;5.424;2024-03-08T12:25:57;101340.59;;;8.08;63.44
72086;BME280;64750;52.134;5.424;2024-03-08T12:28:26;101334.25;;;8.14;63.21
72086;BME280;64750;52.134;5.424;2024-03-08T12:30:52;101329.88;;;8.14;62.57
72086;BME280;64750;52.134;5.424;2024-03-08T12:33:21;101330.66;;;8.16;63.64
72086;BME280;64750;52.134;5.424;2024-03-08T12:35:53;101322.69;;;8.19;63.49
72086;BME280;64750;52.134;5.424;2024-03-08T12:38:27;101315.22;;;8.31;62.65
72086;BME280;64750;52.134;5.424;2024-03-08T12:41:00;101310.75;;;8.33;62.28
72086;BME280;64750;52.134;5.424;2024-03-08T12:43:28;101309.00;;;8.33;62.34
72086;BME280;64750;52.134;5.424;2024-03-08T12:45:59;101314.28;;;8.32;62.00
72086;BME280;64750;52.134;5.424;2024-03-08T12:48:25;101295.03;;;8.33;61.83
72086;BME280;64750;52.134;5.424;2024-03-08T12:50:52;101295.81;;;8.35;61.63
72086;BME280;64750;52.134;5.424;2024-03-08T12:53:20;101287.06;;;8.36;61.72
72086;BME280;64750;52.134;5.424;2024-03-08T12:55:46;101291.25;;;8.40;62.10
72086;BME280;64750;52.134;5.424;2024-03-08T12:58:13;101291.31;;;8.38;61.35
72086;BME280;64750;52.134;5.424;2024-03-08T13:00:39;101282.41;;;8.43;61.27
72086;BME280;64750;52.134;5.424;2024-03-08T13:03:09;101284.94;;;8.44;61.24
72086;BME280;64750;52.134;5.424;2024-03-08T13:05:37;101281.41;;;8.45;61.33
72086;BME280;64750;52.134;5.424;2024-03-08T13:08:07;101279.69;;;8.44;61.83
72086;BME280;64750;52.134;5.424;2024-03-08T13:10:39;101272.53;;;8.49;61.07
72086;BME280;64750;52.134;5.424;2024-03-08T13:13:06;101270.69;;;8.51;61.39